sensor_id;sensor_type;location;lat;lon;timestamp;temperature;humidity
10530;DHT22;5313;48.834;9.228;2023-04-24T00:00:19;11.60;99.90
10530;DHT22;5313;48.834;9.228;2023-04-24T00:02:45;11.70;99.90
10530;DHT22;5313;48.834;9.228;2023-04-24T00:05:14;11.80;99.90
10530;DHT22;5313;48.834;9.228;2023-04-24T00:07:41;11.80;99.90
10530;DHT22;5313;48.834;9.228;2023-04-24T00:10:07;11.80;99.90
10530;DHT22;5313;48.834;9.228;2023-04-24T00:12:33;11.70;99.90
10530;DHT22;5313;48.834;9.228;2023-04-24T00:14:59;11.70;99.90
10530;DHT22;5313;48.834;9.228;2023-04-24T00:17:25;11.70;99.90
10530;DHT22;5313;48.834;9.228;2023-04-24T00:19:51;11.70;99.90
10530;DHT22;5313;48.834;9.228;2023-04-24T00:22:26;11.80;99.90
10530;DHT22;5313;48.834;9.228;2023-04-24T00:24:52;11.80;99.90
10530;DHT22;5313;48.834;9.228;2023-04-24T00:27:18;11.90;99.90
10530;DHT22;5313;48.834;9.228;2023-04-24T00:29:43;11.90;99.90
10530;DHT22;5313;48.834;9.228;2023-04-24T00:32:09;11.90;99.90
10530;DHT22;5313;48.834;9.228;2023-04-24T00:34:34;12.00;99.90
10530;DHT22;5313;48.834;9.228;2023-04-24T00:37:00;12.00;99.90
10530;DHT22;5313;48.834;9.228;2023-04-24T00:39:25;12.00;99.90
10530;DHT22;5313;48.834;9.228;2023-04-24T00:41:51;12.10;99.90
10530;DHT22;5313;48.834;9.228;2023-04-24T00:44:17;12.10;99.90
10530;DHT22;5313;48.834;9.228;2023-04-24T00:46:43;12.20;99.90
10530;DHT22;5313;48.834;9.228;2023-04-24T00:49:08;12.20;99.90
10530;DHT22;5313;48.834;9.228;2023-04-24T00:51:34;12.20;99.90
10530;DHT22;5313;48.834;9.228;2023-04-24T00:54:00;12.20;99.90
10530;DHT22;5313;48.834;9.228;2023-04-24T00:56:26;12.20;99.90
10530;DHT22;5313;48.834;9.228;2023-04-24T00:58:52;12.20;99.90
10530;DHT22;5313;48.834;9.228;2023-04-24T01:01:21;12.20;99.90
10530;DHT22;5313;48.834;9.228;2023-04-24T01:03:51;12.20;99.90
10530;DHT22;5313;48.834;9.228;2023-04-24T01:06:16;12.30;99.90
10530;DHT22;5313;48.834;9.228;2023-04-24T01:08:43;12.20;99.90
10530;DHT22;5313;48.834;9.228;2023-04-24T01:11:10;12.20;99.90
10530;DHT22;5313;48.834;9.228;2023-04-24T01:13:35;12.20;99.90
10530;DHT22;5313;48.834;9.228;2023-04-24T01:16:01;12.20;99.90
10530;DHT22;5313;48.834;9.228;2023-04-24T01:18:27;12.20;99.90
10530;DHT22;5313;48.834;9.228;2023-04-24T01:20:54;12.20;99.90
10530;DHT22;5313;48.834;9.228;2023-04-24T01:23:22;12.20;99.90
10530;DHT22;5313;48.834;9.228;2023-04-24T01:25:49;12.10;99.90
10530;DHT22;5313;48.834;9.228;2023-04-24T01:28:15;12.20;99.90
10530;DHT22;5313;48.834;9.228;2023-04-24T01:30:41;12.20;99.90
10530;DHT22;5313;48.834;9.228;2023-04-24T01:33:07;12.20;99.90
10530;DHT22;5313;48.834;9.228;2023-04-24T01:35:33;12.20;99.90
10530;DHT22;5313;48.834;9.228;2023-04-24T01:37:58;12.10;99.90
10530;DHT22;5313;48.834;9.228;2023-04-24T01:40:24;12.10;99.90
10530;DHT22;5313;48.834;9.228;2023-04-24T01:42:50;12.10;99.90
10530;DHT22;5313;48.834;9.228;2023-04-24T01:45:16;12.10;99.90
10530;DHT22;5313;48.834;9.228;2023-04-24T01:47:41;12.10;99.90
10530;DHT22;5313;48.834;9.228;2023-04-24T01:50:07;12.10;99.90
10530;DHT22;5313;48.834;9.228;2023-04-24T01:52:33;12.00;99.90
10530;DHT22;5313;48.834;9.228;2023-04-24T01:55:00;12.00;99.90
10530;DHT22;5313;48.834;9.228;2023-04-24T01:57:26;12.00;99.90
10530;DHT22;5313;48.834;9.228;2023-04-24T01:59:51;12.00;99.90
10530;DHT22;5313;48.834;9.228;2023-04-24T02:02:17;11.90;99.90
10530;DHT22;5313;48.834;9.228;2023-04-24T02:04:42;11.90;99.90
10530;DHT22;5313;48.834;9.228;2023-04-24T02:07:08;11.90;99.90
10530;DHT22;5313;48.834;9.228;2023-04-24T02:09:33;11.90;99.90
10530;DHT22;5313;48.834;9.228;2023-04-24T02:11:59;11.80;99.90
10530;DHT22;5313;48.834;9.228;2023-04-24T02:14:25;11.80;99.90
10530;DHT22;5313;48.834;9.228;2023-04-24T02:16:51;11.80;99.90
10530;DHT22;5313;48.834;9.228;2023-04-24T02:19:16;11.80;99.90
10530;DHT22;5313;48.834;9.228;2023-04-24T02:21:42;11.80;99.90
10530;DHT22;5313;48.834;9.228;2023-04-24T02:24:07;11.80;99.90
10530;DHT22;5313;48.834;9.228;2023-04-24T02:26:33;11.80;99.90
10530;DHT22;5313;48.834;9.228;2023-04-24T02:28:58;11.70;99.90
10530;DHT22;5313;48.834;9.228;2023-04-24T02:31:24;11.80;99.90
10530;DHT22;5313;48.834;9.228;2023-04-24T02:33:50;11.80;99.90
10530;DHT22;5313;48.834;9.228;2023-04-24T02:36:15;11.80;99.90
10530;DHT22;5313;48.834;9.228;2023-04-24T02:38:41;11.80;99.90
10530;DHT22;5313;48.834;9.228;2023-04-24T02:41:06;11.80;99.90
10530;DHT22;5313;48.834;9.228;2023-04-24T02:43:32;11.90;99.90
10530;DHT22;5313;48.834;9.228;2023-04-24T02:45:58;11.80;99.90
10530;DHT22;5313;48.834;9.228;2023-04-24T02:48:24;11.80;99.90
10530;DHT22;5313;48.834;9.228;2023-04-24T02:50:50;11.70;99.90
10530;DHT22;5313;48.834;9.228;2023-04-24T02:53:16;11.40;99.90
10530;DHT22;5313;48.834;9.228;2023-04-24T02:55:41;11.30;99.90
10530;DHT22;5313;48.834;9.228;2023-04-24T02:58:07;11.20;99.90
10530;DHT22;5313;48.834;9.228;2023-04-24T03:00:32;11.10;99.90
10530;DHT22;5313;48.834;9.228;2023-04-24T03:02:58;11.00;99.90
10530;DHT22;5313;48.834;9.228;2023-04-24T03:05:24;11.00;99.90
10530;DHT22;5313;48.834;9.228;2023-04-24T03:07:49;10.90;99.90
10530;DHT22;5313;48.834;9.228;2023-04-24T03:10:15;10.90;99.90
10530;DHT22;5313;48.834;9.228;2023-04-24T03:12:40;10.90;99.90
10530;DHT22;5313;48.834;9.228;2023-04-24T03:15:06;10.80;99.90
10530;DHT22;5313;48.834;9.228;2023-04-24T03:17:32;10.80;99.90
10530;DHT22;5313;48.834;9.228;2023-04-24T03:19:58;10.80;99.90
10530;DHT22;5313;48.834;9.228;2023-04-24T03:22:23;10.80;99.90
10530;DHT22;5313;48.834;9.228;2023-04-24T03:24:48;10.80;99.90
10530;DHT22;5313;48.834;9.228;2023-04-24T03:27:14;10.80;99.90
10530;DHT22;5313;48.834;9.228;2023-04-24T03:29:40;10.80;99.90
10530;DHT22;5313;48.834;9.228;2023-04-24T03:32:06;10.80;99.90
10530;DHT22;5313;48.834;9.228;2023-04-24T03:34:31;10.80;99.90
10530;DHT22;5313;48.834;9.228;2023-04-24T03:36:57;10.80;99.90
10530;DHT22;5313;48.834;9.228;2023-04-24T03:39:22;10.80;99.90
10530;DHT22;5313;48.834;9.228;2023-04-24T03:41:48;10.90;99.90
10530;DHT22;5313;48.834;9.228;2023-04-24T03:44:13;10.90;99.90
10530;DHT22;5313;48.834;9.228;2023-04-24T03:46:39;10.90;99.90
10530;DHT22;5313;48.834;9.228;2023-04-24T03:49:04;10.90;99.90
10530;DHT22;5313;48.834;9.228;2023-04-24T03:51:30;10.90;99.90
10530;DHT22;5313;48.834;9.228;2023-04-24T03:53:56;10.90;99.90
10530;DHT22;5313;48.834;9.228;2023-04-24T03:56:22;10.90;99.90
10530;DHT22;5313;48.834;9.228;2023-04-24T03:58:47;10.90;99.90
10530;DHT22;5313;48.834;9.228;2023-04-24T04:01:13;10.90;99.90
10530;DHT22;5313;48.834;9.228;2023-04-24T04:03:41;10.90;99.90
10530;DHT22;5313;48.834;9.228;2023-04-24T04:06:06;10.80;99.90
10530;DHT22;5313;48.834;9.228;2023-04-24T04:08:32;10.80;99.90
10530;DHT22;5313;48.834;9.228;2023-04-24T04:10:57;10.80;99.90
10530;DHT22;5313;48.834;9.228;2023-04-24T04:13:23;10.90;99.90
10530;DHT22;5313;48.834;9.228;2023-04-24T04:15:48;10.90;99.90
10530;DHT22;5313;48.834;9.228;2023-04-24T04:18:14;10.90;99.90
10530;DHT22;5313;48.834;9.228;2023-04-24T04:20:40;10.90;99.90
10530;DHT22;5313;48.834;9.228;2023-04-24T04:23:05;11.00;99.90
10530;DHT22;5313;48.834;9.228;2023-04-24T04:25:31;11.00;99.90
10530;DHT22;5313;48.834;9.228;2023-04-24T04:27:56;11.00;99.90
10530;DHT22;5313;48.834;9.228;2023-04-24T04:30:24;11.00;99.90
10530;DHT22;5313;48.834;9.228;2023-04-24T04:32:51;11.00;99.90
10530;DHT22;5313;48.834;9.228;2023-04-24T04:35:16;10.80;99.90
10530;DHT22;5313;48.834;9.228;2023-04-24T04:37:42;10.70;99.90
10530;DHT22;5313;48.834;9.228;2023-04-24T04:40:08;10.60;99.90
10530;DHT22;5313;48.834;9.228;2023-04-24T04:42:37;10.50;99.90
10530;DHT22;5313;48.834;9.228;2023-04-24T04:45:06;10.50;99.90
10530;DHT22;5313;48.834;9.228;2023-04-24T04:47:34;10.40;99.90
10530;DHT22;5313;48.834;9.228;2023-04-24T04:50:00;10.40;99.90
10530;DHT22;5313;48.834;9.228;2023-04-24T04:52:25;10.50;99.90
10530;DHT22;5313;48.834;9.228;2023-04-24T04:54:52;10.40;99.90
10530;DHT22;5313;48.834;9.228;2023-04-24T04:57:17;10.40;99.90
10530;DHT22;5313;48.834;9.228;2023-04-24T04:59:43;10.30;99.90
10530;DHT22;5313;48.834;9.228;2023-04-24T05:02:08;10.20;99.90
10530;DHT22;5313;48.834;9.228;2023-04-24T05:04:34;10.20;99.90
10530;DHT22;5313;48.834;9.228;2023-04-24T05:07:00;10.20;99.90
10530;DHT22;5313;48.834;9.228;2023-04-24T05:09:25;10.20;99.90
10530;DHT22;5313;48.834;9.228;2023-04-24T05:11:52;10.10;99.90
10530;DHT22;5313;48.834;9.228;2023-04-24T05:14:18;10.20;99.90
10530;DHT22;5313;48.834;9.228;2023-04-24T05:16:44;10.20;99.90
10530;DHT22;5313;48.834;9.228;2023-04-24T05:19:10;10.20;99.90
10530;DHT22;5313;48.834;9.228;2023-04-24T05:21:37;10.20;99.90
10530;DHT22;5313;48.834;9.228;2023-04-24T05:24:02;10.20;99.90
10530;DHT22;5313;48.834;9.228;2023-04-24T05:26:28;10.20;99.90
10530;DHT22;5313;48.834;9.228;2023-04-24T05:28:53;10.40;99.90
10530;DHT22;5313;48.834;9.228;2023-04-24T05:31:19;10.40;99.90
10530;DHT22;5313;48.834;9.228;2023-04-24T05:33:45;10.40;99.90
10530;DHT22;5313;48.834;9.228;2023-04-24T05:36:10;10.40;99.90
10530;DHT22;5313;48.834;9.228;2023-04-24T05:38:36;10.40;99.90
10530;DHT22;5313;48.834;9.228;2023-04-24T05:41:01;10.30;99.90
10530;DHT22;5313;48.834;9.228;2023-04-24T05:43:27;10.30;99.90
10530;DHT22;5313;48.834;9.228;2023-04-24T05:45:52;10.30;99.90
10530;DHT22;5313;48.834;9.228;2023-04-24T05:48:19;10.30;99.90
10530;DHT22;5313;48.834;9.228;2023-04-24T05:50:44;10.30;99.90
10530;DHT22;5313;48.834;9.228;2023-04-24T05:53:10;10.30;99.90
10530;DHT22;5313;48.834;9.228;2023-04-24T05:55:36;10.30;99.90
10530;DHT22;5313;48.834;9.228;2023-04-24T05:58:02;10.40;99.90
10530;DHT22;5313;48.834;9.228;2023-04-24T06:00:27;10.40;99.90
10530;DHT22;5313;48.834;9.228;2023-04-24T06:02:53;10.50;99.90
10530;DHT22;5313;48.834;9.228;2023-04-24T06:05:19;10.40;99.90
10530;DHT22;5313;48.834;9.228;2023-04-24T06:07:45;10.50;99.90
10530;DHT22;5313;48.834;9.228;2023-04-24T06:10:11;10.50;99.90
10530;DHT22;5313;48.834;9.228;2023-04-24T06:12:36;10.50;99.90
10530;DHT22;5313;48.834;9.228;2023-04-24T06:15:03;10.40;99.90
10530;DHT22;5313;48.834;9.228;2023-04-24T06:17:28;10.40;99.90
10530;DHT22;5313;48.834;9.228;2023-04-24T06:19:54;10.30;99.90
10530;DHT22;5313;48.834;9.228;2023-04-24T06:22:20;10.30;99.90
10530;DHT22;5313;48.834;9.228;2023-04-24T06:24:45;10.30;99.90
10530;DHT22;5313;48.834;9.228;2023-04-24T06:27:12;10.40;99.90
10530;DHT22;5313;48.834;9.228;2023-04-24T06:29:38;10.50;99.90
10530;DHT22;5313;48.834;9.228;2023-04-24T06:32:03;10.80;99.90
10530;DHT22;5313;48.834;9.228;2023-04-24T06:34:29;11.00;99.90
10530;DHT22;5313;48.834;9.228;2023-04-24T06:36:56;11.20;99.90
10530;DHT22;5313;48.834;9.228;2023-04-24T06:39:21;11.20;99.90
10530;DHT22;5313;48.834;9.228;2023-04-24T06:41:47;11.30;99.90
10530;DHT22;5313;48.834;9.228;2023-04-24T06:44:12;11.40;99.90
10530;DHT22;5313;48.834;9.228;2023-04-24T06:46:40;11.50;99.90
10530;DHT22;5313;48.834;9.228;2023-04-24T06:49:06;11.70;99.90
10530;DHT22;5313;48.834;9.228;2023-04-24T06:51:31;11.90;99.90
10530;DHT22;5313;48.834;9.228;2023-04-24T06:53:58;12.10;99.90
10530;DHT22;5313;48.834;9.228;2023-04-24T06:56:25;12.00;99.90
10530;DHT22;5313;48.834;9.228;2023-04-24T06:58:51;11.90;99.90
10530;DHT22;5313;48.834;9.228;2023-04-24T07:01:17;12.00;99.90
10530;DHT22;5313;48.834;9.228;2023-04-24T07:03:42;12.00;99.90
10530;DHT22;5313;48.834;9.228;2023-04-24T07:06:09;12.10;99.90
10530;DHT22;5313;48.834;9.228;2023-04-24T07:08:38;12.20;99.90
10530;DHT22;5313;48.834;9.228;2023-04-24T07:11:04;12.20;99.90
10530;DHT22;5313;48.834;9.228;2023-04-24T07:13:30;12.20;99.90
10530;DHT22;5313;48.834;9.228;2023-04-24T07:15:55;12.30;99.90
10530;DHT22;5313;48.834;9.228;2023-04-24T07:18:21;12.30;99.90
10530;DHT22;5313;48.834;9.228;2023-04-24T07:20:47;12.20;99.90
10530;DHT22;5313;48.834;9.228;2023-04-24T07:23:15;12.10;99.90
10530;DHT22;5313;48.834;9.228;2023-04-24T07:25:41;12.00;99.90
10530;DHT22;5313;48.834;9.228;2023-04-24T07:28:06;12.00;99.90
10530;DHT22;5313;48.834;9.228;2023-04-24T07:30:32;12.10;99.90
10530;DHT22;5313;48.834;9.228;2023-04-24T07:32:58;12.00;99.90
10530;DHT22;5313;48.834;9.228;2023-04-24T07:35:25;12.00;99.90
10530;DHT22;5313;48.834;9.228;2023-04-24T07:37:53;12.10;99.90
10530;DHT22;5313;48.834;9.228;2023-04-24T07:40:20;12.10;99.90
10530;DHT22;5313;48.834;9.228;2023-04-24T07:42:45;12.20;99.90
10530;DHT22;5313;48.834;9.228;2023-04-24T07:45:14;12.30;99.90
10530;DHT22;5313;48.834;9.228;2023-04-24T07:47:41;12.40;99.90
10530;DHT22;5313;48.834;9.228;2023-04-24T07:50:09;12.70;99.90
10530;DHT22;5313;48.834;9.228;2023-04-24T07:52:35;12.90;99.90
10530;DHT22;5313;48.834;9.228;2023-04-24T07:55:00;13.00;99.90
10530;DHT22;5313;48.834;9.228;2023-04-24T07:57:27;12.80;99.90
10530;DHT22;5313;48.834;9.228;2023-04-24T07:59:53;12.80;99.90
10530;DHT22;5313;48.834;9.228;2023-04-24T08:02:18;12.80;99.90
10530;DHT22;5313;48.834;9.228;2023-04-24T08:04:44;12.80;99.90
10530;DHT22;5313;48.834;9.228;2023-04-24T08:07:09;12.80;99.90
10530;DHT22;5313;48.834;9.228;2023-04-24T08:09:35;12.90;99.90
10530;DHT22;5313;48.834;9.228;2023-04-24T08:12:00;13.10;99.90
10530;DHT22;5313;48.834;9.228;2023-04-24T08:14:27;13.10;99.90
10530;DHT22;5313;48.834;9.228;2023-04-24T08:16:56;13.10;99.90
10530;DHT22;5313;48.834;9.228;2023-04-24T08:19:21;13.20;99.90
10530;DHT22;5313;48.834;9.228;2023-04-24T08:21:47;13.40;99.90
10530;DHT22;5313;48.834;9.228;2023-04-24T08:24:13;13.40;99.90
10530;DHT22;5313;48.834;9.228;2023-04-24T08:26:38;13.30;99.90
10530;DHT22;5313;48.834;9.228;2023-04-24T08:29:04;13.20;99.90
10530;DHT22;5313;48.834;9.228;2023-04-24T08:31:30;12.90;99.90
10530;DHT22;5313;48.834;9.228;2023-04-24T08:33:55;12.60;99.90
10530;DHT22;5313;48.834;9.228;2023-04-24T08:36:21;12.60;99.90
10530;DHT22;5313;48.834;9.228;2023-04-24T08:38:46;12.50;99.90
10530;DHT22;5313;48.834;9.228;2023-04-24T08:41:14;12.40;99.90
10530;DHT22;5313;48.834;9.228;2023-04-24T08:43:41;12.50;99.90
10530;DHT22;5313;48.834;9.228;2023-04-24T08:46:07;12.50;99.90
10530;DHT22;5313;48.834;9.228;2023-04-24T08:48:34;12.60;99.90
10530;DHT22;5313;48.834;9.228;2023-04-24T08:50:59;12.60;99.90
10530;DHT22;5313;48.834;9.228;2023-04-24T08:53:26;12.40;99.90
10530;DHT22;5313;48.834;9.228;2023-04-24T08:55:54;12.30;99.90
10530;DHT22;5313;48.834;9.228;2023-04-24T08:58:20;12.20;99.90
10530;DHT22;5313;48.834;9.228;2023-04-24T09:00:47;12.40;99.90
10530;DHT22;5313;48.834;9.228;2023-04-24T09:03:15;12.40;99.90
10530;DHT22;5313;48.834;9.228;2023-04-24T09:05:46;12.40;99.90
10530;DHT22;5313;48.834;9.228;2023-04-24T09:08:13;12.40;99.90
10530;DHT22;5313;48.834;9.228;2023-04-24T09:10:40;12.50;99.90
10530;DHT22;5313;48.834;9.228;2023-04-24T09:13:05;12.50;99.90
10530;DHT22;5313;48.834;9.228;2023-04-24T09:15:31;12.50;99.90
10530;DHT22;5313;48.834;9.228;2023-04-24T09:17:57;12.40;99.90
10530;DHT22;5313;48.834;9.228;2023-04-24T09:20:23;12.30;99.90
10530;DHT22;5313;48.834;9.228;2023-04-24T09:22:53;12.20;99.90
10530;DHT22;5313;48.834;9.228;2023-04-24T09:25:20;12.10;99.90
10530;DHT22;5313;48.834;9.228;2023-04-24T09:27:46;11.90;99.90
10530;DHT22;5313;48.834;9.228;2023-04-24T09:30:12;11.60;99.90
10530;DHT22;5313;48.834;9.228;2023-04-24T09:32:38;11.20;99.90
10530;DHT22;5313;48.834;9.228;2023-04-24T09:35:15;11.00;99.90
10530;DHT22;5313;48.834;9.228;2023-04-24T09:37:47;11.00;99.90
10530;DHT22;5313;48.834;9.228;2023-04-24T09:40:18;11.30;99.90
10530;DHT22;5313;48.834;9.228;2023-04-24T09:42:52;11.50;99.90
10530;DHT22;5313;48.834;9.228;2023-04-24T09:45:17;11.70;99.90
10530;DHT22;5313;48.834;9.228;2023-04-24T09:47:43;11.80;99.90
10530;DHT22;5313;48.834;9.228;2023-04-24T09:50:15;12.50;99.90
10530;DHT22;5313;48.834;9.228;2023-04-24T09:52:46;13.00;99.90
10530;DHT22;5313;48.834;9.228;2023-04-24T09:55:18;13.60;99.90
10530;DHT22;5313;48.834;9.228;2023-04-24T09:57:57;13.50;99.90
10530;DHT22;5313;48.834;9.228;2023-04-24T10:00:28;12.90;99.90
10530;DHT22;5313;48.834;9.228;2023-04-24T10:02:55;12.50;99.90
10530;DHT22;5313;48.834;9.228;2023-04-24T10:05:35;12.50;99.90
10530;DHT22;5313;48.834;9.228;2023-04-24T10:08:06;13.10;99.90
10530;DHT22;5313;48.834;9.228;2023-04-24T10:10:40;13.10;99.90
10530;DHT22;5313;48.834;9.228;2023-04-24T10:13:07;13.10;99.90
10530;DHT22;5313;48.834;9.228;2023-04-24T10:15:32;13.50;99.90
10530;DHT22;5313;48.834;9.228;2023-04-24T10:17:59;13.80;99.90
10530;DHT22;5313;48.834;9.228;2023-04-24T10:20:27;13.40;99.90
10530;DHT22;5313;48.834;9.228;2023-04-24T10:22:55;13.60;99.90
10530;DHT22;5313;48.834;9.228;2023-04-24T10:25:22;13.60;99.90
10530;DHT22;5313;48.834;9.228;2023-04-24T10:27:50;13.90;99.90
10530;DHT22;5313;48.834;9.228;2023-04-24T10:30:17;13.60;99.90
10530;DHT22;5313;48.834;9.228;2023-04-24T10:32:44;13.20;99.90
10530;DHT22;5313;48.834;9.228;2023-04-24T10:35:11;13.10;99.90
10530;DHT22;5313;48.834;9.228;2023-04-24T10:37:43;13.20;99.90
10530;DHT22;5313;48.834;9.228;2023-04-24T10:40:10;13.10;99.90
10530;DHT22;5313;48.834;9.228;2023-04-24T10:42:40;12.90;99.90
10530;DHT22;5313;48.834;9.228;2023-04-24T10:45:19;12.70;99.90
10530;DHT22;5313;48.834;9.228;2023-04-24T10:48:03;12.60;99.90
10530;DHT22;5313;48.834;9.228;2023-04-24T10:50:42;12.50;99.90
10530;DHT22;5313;48.834;9.228;2023-04-24T10:53:16;12.40;99.90
10530;DHT22;5313;48.834;9.228;2023-04-24T10:55:50;12.40;99.90
10530;DHT22;5313;48.834;9.228;2023-04-24T10:58:17;12.40;99.90
10530;DHT22;5313;48.834;9.228;2023-04-24T11:00:58;12.50;99.90
10530;DHT22;5313;48.834;9.228;2023-04-24T11:03:27;12.60;99.90
10530;DHT22;5313;48.834;9.228;2023-04-24T11:11:00;12.60;99.90
10530;DHT22;5313;48.834;9.228;2023-04-24T11:13:29;12.60;99.90
10530;DHT22;5313;48.834;9.228;2023-04-24T11:19:17;12.70;99.90
10530;DHT22;5313;48.834;9.228;2023-04-24T11:21:50;12.90;99.90
10530;DHT22;5313;48.834;9.228;2023-04-24T11:24:58;13.00;99.90
10530;DHT22;5313;48.834;9.228;2023-04-24T11:27:20;13.20;99.90
10530;DHT22;5313;48.834;9.228;2023-04-24T11:30:02;13.10;99.90
10530;DHT22;5313;48.834;9.228;2023-04-24T11:32:39;13.00;99.90
10530;DHT22;5313;48.834;9.228;2023-04-24T11:35:16;13.40;99.90
10530;DHT22;5313;48.834;9.228;2023-04-24T11:37:44;13.50;99.90
10530;DHT22;5313;48.834;9.228;2023-04-24T11:40:13;13.70;99.90
10530;DHT22;5313;48.834;9.228;2023-04-24T11:42:45;13.50;99.90
10530;DHT22;5313;48.834;9.228;2023-04-24T11:45:13;13.60;99.90
10530;DHT22;5313;48.834;9.228;2023-04-24T11:47:39;13.70;99.90
10530;DHT22;5313;48.834;9.228;2023-04-24T11:50:10;13.50;99.90
10530;DHT22;5313;48.834;9.228;2023-04-24T11:52:44;13.20;99.90
10530;DHT22;5313;48.834;9.228;2023-04-24T11:57:49;12.80;99.90
10530;DHT22;5313;48.834;9.228;2023-04-24T12:00:19;12.70;99.90
10530;DHT22;5313;48.834;9.228;2023-04-24T12:02:46;12.70;99.90
10530;DHT22;5313;48.834;9.228;2023-04-24T12:05:27;12.90;99.90
10530;DHT22;5313;48.834;9.228;2023-04-24T12:07:53;13.20;99.90
10530;DHT22;5313;48.834;9.228;2023-04-24T12:10:24;13.40;99.90
10530;DHT22;5313;48.834;9.228;2023-04-24T12:12:50;13.40;99.90
10530;DHT22;5313;48.834;9.228;2023-04-24T12:15:18;13.50;99.90
10530;DHT22;5313;48.834;9.228;2023-04-24T12:17:44;13.10;99.90
10530;DHT22;5313;48.834;9.228;2023-04-24T12:20:10;13.10;99.90
10530;DHT22;5313;48.834;9.228;2023-04-24T12:25:13;12.90;99.90
10530;DHT22;5313;48.834;9.228;2023-04-24T12:27:38;12.70;99.90
10530;DHT22;5313;48.834;9.228;2023-04-24T12:30:05;12.70;99.90
10530;DHT22;5313;48.834;9.228;2023-04-24T12:32:35;12.80;99.90
10530;DHT22;5313;48.834;9.228;2023-04-24T12:35:00;12.90;99.90
10530;DHT22;5313;48.834;9.228;2023-04-24T12:37:32;12.90;99.90
10530;DHT22;5313;48.834;9.228;2023-04-24T12:40:08;13.90;99.90
10530;DHT22;5313;48.834;9.228;2023-04-24T12:42:41;13.00;99.90
10530;DHT22;5313;48.834;9.228;2023-04-24T12:45:07;12.80;99.90
10530;DHT22;5313;48.834;9.228;2023-04-24T12:47:34;12.70;99.90
10530;DHT22;5313;48.834;9.228;2023-04-24T12:50:01;12.80;99.90
10530;DHT22;5313;48.834;9.228;2023-04-24T12:52:28;12.80;99.90
10530;DHT22;5313;48.834;9.228;2023-04-24T12:54:55;12.90;99.90
10530;DHT22;5313;48.834;9.228;2023-04-24T12:57:22;12.90;99.90
10530;DHT22;5313;48.834;9.228;2023-04-24T12:59:47;12.80;99.90
10530;DHT22;5313;48.834;9.228;2023-04-24T13:02:13;12.70;99.90
10530;DHT22;5313;48.834;9.228;2023-04-24T13:04:39;12.60;99.90
10530;DHT22;5313;48.834;9.228;2023-04-24T13:07:05;12.60;99.90
10530;DHT22;5313;48.834;9.228;2023-04-24T13:09:31;12.30;99.90
10530;DHT22;5313;48.834;9.228;2023-04-24T13:11:56;12.10;99.90
10530;DHT22;5313;48.834;9.228;2023-04-24T13:14:23;12.10;99.90
10530;DHT22;5313;48.834;9.228;2023-04-24T13:16:49;12.50;99.90
10530;DHT22;5313;48.834;9.228;2023-04-24T13:19:14;12.80;99.90
10530;DHT22;5313;48.834;9.228;2023-04-24T13:21:40;12.80;99.90
10530;DHT22;5313;48.834;9.228;2023-04-24T13:24:06;12.90;99.90
10530;DHT22;5313;48.834;9.228;2023-04-24T13:26:33;12.90;99.90
10530;DHT22;5313;48.834;9.228;2023-04-24T13:28:58;13.00;99.90
10530;DHT22;5313;48.834;9.228;2023-04-24T13:31:24;13.10;99.90
10530;DHT22;5313;48.834;9.228;2023-04-24T13:33:49;13.20;99.90
10530;DHT22;5313;48.834;9.228;2023-04-24T13:36:15;13.40;99.90
10530;DHT22;5313;48.834;9.228;2023-04-24T13:38:43;13.20;99.90
10530;DHT22;5313;48.834;9.228;2023-04-24T13:41:08;12.90;99.90
10530;DHT22;5313;48.834;9.228;2023-04-24T13:43:34;13.00;99.90
10530;DHT22;5313;48.834;9.228;2023-04-24T13:46:00;12.90;99.90
10530;DHT22;5313;48.834;9.228;2023-04-24T13:48:28;12.90;99.90
10530;DHT22;5313;48.834;9.228;2023-04-24T13:50:54;12.80;99.90
10530;DHT22;5313;48.834;9.228;2023-04-24T13:53:19;12.70;99.90
10530;DHT22;5313;48.834;9.228;2023-04-24T13:55:45;12.80;99.90
10530;DHT22;5313;48.834;9.228;2023-04-24T13:58:10;12.80;99.90
10530;DHT22;5313;48.834;9.228;2023-04-24T14:00:36;13.10;99.90
10530;DHT22;5313;48.834;9.228;2023-04-24T14:03:01;13.90;99.90
10530;DHT22;5313;48.834;9.228;2023-04-24T14:05:27;14.50;99.90
10530;DHT22;5313;48.834;9.228;2023-04-24T14:07:52;14.50;99.90
10530;DHT22;5313;48.834;9.228;2023-04-24T14:10:18;15.30;99.90
10530;DHT22;5313;48.834;9.228;2023-04-24T14:12:43;15.70;99.90
10530;DHT22;5313;48.834;9.228;2023-04-24T14:15:09;15.50;99.90
10530;DHT22;5313;48.834;9.228;2023-04-24T14:17:35;15.00;99.90
10530;DHT22;5313;48.834;9.228;2023-04-24T14:20:01;14.60;99.90
10530;DHT22;5313;48.834;9.228;2023-04-24T14:22:27;15.30;99.90
10530;DHT22;5313;48.834;9.228;2023-04-24T14:24:52;15.60;99.90
10530;DHT22;5313;48.834;9.228;2023-04-24T14:27:18;15.50;99.90
10530;DHT22;5313;48.834;9.228;2023-04-24T14:29:43;14.60;99.90
10530;DHT22;5313;48.834;9.228;2023-04-24T14:32:10;14.80;99.90
10530;DHT22;5313;48.834;9.228;2023-04-24T14:34:37;14.70;99.90
10530;DHT22;5313;48.834;9.228;2023-04-24T14:37:02;15.10;99.90
10530;DHT22;5313;48.834;9.228;2023-04-24T14:39:28;15.30;99.90
10530;DHT22;5313;48.834;9.228;2023-04-24T14:41:54;15.60;99.90
10530;DHT22;5313;48.834;9.228;2023-04-24T14:44:20;15.60;99.90
10530;DHT22;5313;48.834;9.228;2023-04-24T14:46:45;15.30;99.90
10530;DHT22;5313;48.834;9.228;2023-04-24T14:49:11;14.30;99.90
10530;DHT22;5313;48.834;9.228;2023-04-24T14:51:37;14.00;99.90
10530;DHT22;5313;48.834;9.228;2023-04-24T14:54:03;13.90;99.90
10530;DHT22;5313;48.834;9.228;2023-04-24T14:56:29;14.30;99.90
10530;DHT22;5313;48.834;9.228;2023-04-24T14:58:55;14.20;99.90
10530;DHT22;5313;48.834;9.228;2023-04-24T15:01:21;13.90;99.90
10530;DHT22;5313;48.834;9.228;2023-04-24T15:03:46;13.70;99.90
10530;DHT22;5313;48.834;9.228;2023-04-24T15:06:12;13.30;99.90
10530;DHT22;5313;48.834;9.228;2023-04-24T15:08:37;13.40;99.90
10530;DHT22;5313;48.834;9.228;2023-04-24T15:11:03;13.90;99.90
10530;DHT22;5313;48.834;9.228;2023-04-24T15:13:28;14.20;99.90
10530;DHT22;5313;48.834;9.228;2023-04-24T15:15:54;14.10;99.90
10530;DHT22;5313;48.834;9.228;2023-04-24T15:18:19;13.50;99.90
10530;DHT22;5313;48.834;9.228;2023-04-24T15:20:45;13.30;99.90
10530;DHT22;5313;48.834;9.228;2023-04-24T15:23:11;13.10;99.90
10530;DHT22;5313;48.834;9.228;2023-04-24T15:25:37;13.10;99.90
10530;DHT22;5313;48.834;9.228;2023-04-24T15:28:04;13.10;99.90
10530;DHT22;5313;48.834;9.228;2023-04-24T15:30:31;13.10;99.90
10530;DHT22;5313;48.834;9.228;2023-04-24T15:32:56;13.00;99.90
10530;DHT22;5313;48.834;9.228;2023-04-24T15:35:22;12.80;99.90
10530;DHT22;5313;48.834;9.228;2023-04-24T15:37:48;12.70;99.90
10530;DHT22;5313;48.834;9.228;2023-04-24T15:40:14;12.80;99.90
10530;DHT22;5313;48.834;9.228;2023-04-24T15:42:41;12.80;99.90
10530;DHT22;5313;48.834;9.228;2023-04-24T15:45:08;12.40;99.90
10530;DHT22;5313;48.834;9.228;2023-04-24T15:47:34;12.40;99.90
10530;DHT22;5313;48.834;9.228;2023-04-24T15:50:00;12.30;99.90
10530;DHT22;5313;48.834;9.228;2023-04-24T15:52:26;12.30;99.90
10530;DHT22;5313;48.834;9.228;2023-04-24T15:54:51;12.20;99.90